| time (UTC) | temp C | wind direction | speed KPH | gust KPH | rain 1hr cm | rain 24hr cm | rain mn cm | humidity % | barometer mb |
| 20260505230107 | 26 | 339 | 6.4 | 25.7 | 0.00 | 0.00 | 0.00 | 27 | 1001.8 |
| 20260505224558 | 26 | 309 | 11.3 | 24.1 | 0.00 | 0.00 | 0.00 | 27 | 1002.0 |
| 20260505223055 | 26 | 351 | 11.3 | 24.1 | 0.00 | 0.00 | 0.00 | 28 | 1002.1 |
| 20260505221557 | 26 | 321 | 11.3 | 17.7 | 0.00 | 0.00 | 0.00 | 27 | 1002.4 |
| 20260505220045 | 25 | 296 | 3.2 | 24.1 | 0.00 | 0.00 | 0.00 | 28 | 1002.4 |
| 20260505214543 | 25 | 333 | 11.3 | 29.0 | 0.00 | 0.00 | 0.00 | 26 | 1002.7 |
| 20260505213040 | 25 | 16 | 3.2 | 16.1 | 0.00 | 0.00 | 0.00 | 29 | 1002.8 |
| 20260505211511 | 25 | 11 | 4.8 | 22.5 | 0.00 | 0.00 | 0.00 | 30 | 1003.1 |
| 20260505210006 | 25 | 351 | 3.2 | 19.3 | 0.00 | 0.00 | 0.00 | 32 | 1003.2 |
| 20260505204503 | 25 | 355 | 14.5 | 25.7 | 0.00 | 0.00 | 0.00 | 31 | 1003.4 |
| 20260505203007 | 24 | 5 | 3.2 | 17.7 | 0.00 | 0.00 | 0.00 | 31 | 1003.5 |
| 20260505201502 | 24 | 304 | 11.3 | 22.5 | 0.00 | 0.00 | 0.00 | 30 | 1003.6 |
| 20260505200100 | 24 | 337 | 4.8 | 17.7 | 0.00 | 0.00 | 0.00 | 34 | 1003.6 |
| 20260505194617 | 24 | 10 | 4.8 | 16.1 | 0.00 | 0.00 | 0.00 | 32 | 1003.8 |
| 20260505193101 | 24 | 259 | 3.2 | 9.7 | 0.00 | 0.00 | 0.00 | 29 | 1003.9 |
| 20260505191607 | 24 | 297 | 1.6 | 9.7 | 0.00 | 0.00 | 0.00 | 30 | 1004.0 |
| 20260505190054 | 23 | 152 | 3.2 | 12.9 | 0.00 | 0.00 | 0.00 | 31 | 1004.1 |
| 20260505184549 | 23 | 178 | 4.8 | 9.7 | 0.00 | 0.00 | 0.00 | 29 | 1004.4 |
| 20260505183048 | 23 | 159 | 4.8 | 11.3 | 0.00 | 0.00 | 0.00 | 30 | 1004.5 |
| 20260505181547 | 23 | 116 | 4.8 | 12.9 | 0.00 | 0.00 | 0.00 | 31 | 1004.6 |
| 20260505180048 | 22 | 188 | 3.2 | 9.7 | 0.00 | 0.00 | 0.00 | 31 | 1004.8 |
| 20260505174541 | 22 | 129 | 3.2 | 12.9 | 0.00 | 0.00 | 0.00 | 31 | 1004.7 |
| 20260505173038 | 22 | 117 | 4.8 | 14.5 | 0.00 | 0.00 | 0.00 | 32 | 1004.6 |
| 20260505171538 | 22 | 162 | 6.4 | 12.9 | 0.00 | 0.00 | 0.00 | 31 | 1004.6 |
| 20260505170034 | 22 | 176 | 6.4 | 12.9 | 0.00 | 0.00 | 0.00 | 32 | 1004.5 |
| 20260505164532 | 21 | 200 | 3.2 | 8.0 | 0.00 | 0.00 | 0.00 | 33 | 1004.5 |
| 20260505163059 | 21 | 126 | 3.2 | 11.3 | 0.00 | 0.00 | 0.00 | 33 | 1004.5 |
| 20260505161602 | 21 | 154 | 4.8 | 14.5 | 0.00 | 0.00 | 0.00 | 33 | 1004.4 |
| 20260505153049 | 20 | 123 | 9.7 | 17.7 | 0.00 | 0.00 | 0.00 | 34 | 1004.2 |
| 20260505151545 | 19 | 178 | 6.4 | 11.3 | 0.00 | 0.00 | 0.00 | 43 | 1004.1 |
| 20260505124555 | 10 | 322 | 0.0 | 0.0 | 0.00 | 0.00 | 0.00 | 68 | 1002.0 |
| 20260505123016 | 11 | 322 | 0.0 | 0.0 | 0.00 | 0.00 | 0.00 | 67 | 1001.9 |
| 20260505121525 | 11 | 322 | 0.0 | 1.6 | 0.00 | 0.00 | 0.00 | 66 | 1001.4 |
| 20260505120007 | 11 | 322 | 1.6 | 4.8 | 0.00 | 0.00 | 0.00 | 64 | 1001.1 |
| 20260505114503 | 12 | 322 | 0.0 | 0.0 | 0.00 | 0.00 | 0.00 | 61 | 1001.1 |
| 20260505113104 | 13 | 322 | 0.0 | 1.6 | 0.00 | 0.00 | 0.00 | 58 | 1001.1 |
| 20260505111556 | 14 | 322 | 0.0 | 1.6 | 0.00 | 0.00 | 0.00 | 54 | 1000.7 |
| 20260505101516 | 14 | 327 | 4.8 | 12.9 | 0.00 | 0.00 | 0.00 | 53 | 999.9 |
| 20260505100021 | 14 | 355 | 3.2 | 9.7 | 0.00 | 0.00 | 0.00 | 53 | 999.9 |
| 20260505094515 | 15 | 295 | 6.4 | 17.7 | 0.00 | 0.00 | 0.00 | 51 | 999.8 |
| 20260505093042 | 14 | 350 | 8.0 | 19.3 | 0.00 | 0.00 | 0.00 | 52 | 999.8 |
| 20260505091550 | 14 | 308 | 9.7 | 14.5 | 0.00 | 0.00 | 0.00 | 53 | 999.6 |
| 20260505090044 | 15 | 296 | 9.7 | 17.7 | 0.00 | 0.00 | 0.00 | 51 | 999.6 |
| 20260505084532 | 15 | 300 | 8.0 | 19.3 | 0.00 | 0.00 | 0.00 | 50 | 999.6 |
| 20260505083042 | 15 | 271 | 8.0 | 17.7 | 0.00 | 0.00 | 0.00 | 50 | 999.5 |
| 20260505081530 | 15 | 296 | 4.8 | 9.7 | 0.00 | 0.00 | 0.00 | 49 | 999.5 |
| 20260505080022 | 16 | 306 | 4.8 | 12.9 | 0.00 | 0.00 | 0.00 | 45 | 999.5 |
| 20260505074517 | 16 | 305 | 4.8 | 14.5 | 0.00 | 0.00 | 0.00 | 44 | 999.5 |
| 20260505073014 | 17 | 302 | 8.0 | 17.7 | 0.00 | 0.00 | 0.00 | 42 | 999.5 |
| 20260505071510 | 18 | 283 | 3.2 | 12.9 | 0.00 | 0.00 | 0.00 | 40 | 999.4 |
| 20260505070038 | 18 | 301 | 8.0 | 20.9 | 0.00 | 0.00 | 0.00 | 37 | 999.2 |
| 20260505064536 | 18 | 351 | 8.0 | 17.7 | 0.00 | 0.00 | 0.00 | 39 | 999.0 |
| 20260505063043 | 17 | 337 | 9.7 | 17.7 | 0.00 | 0.00 | 0.00 | 40 | 998.8 |
| 20260505061534 | 18 | 311 | 8.0 | 14.5 | 0.00 | 0.00 | 0.00 | 41 | 998.8 |
| 20260505060026 | 18 | 309 | 8.0 | 17.7 | 0.00 | 0.00 | 0.00 | 40 | 998.8 |
| 20260505054535 | 17 | 315 | 4.8 | 9.7 | 0.00 | 0.00 | 0.00 | 43 | 998.7 |
| 20260505053022 | 17 | 313 | 3.2 | 12.9 | 0.00 | 0.00 | 0.00 | 45 | 998.7 |
| 20260505051622 | 18 | 309 | 3.2 | 9.7 | 0.00 | 0.00 | 0.00 | 44 | 998.6 |
| 20260505041600 | 20 | 329 | 4.8 | 9.7 | 0.00 | 0.00 | 0.00 | 37 | 998.3 |
| 20260505040049 | 21 | 355 | 3.2 | 9.7 | 0.00 | 0.00 | 0.00 | 37 | 998.2 |
| 20260505034518 | 21 | 331 | 3.2 | 12.9 | 0.00 | 0.00 | 0.00 | 37 | 997.8 |
| 20260505033018 | 22 | 312 | 6.4 | 16.1 | 0.00 | 0.00 | 0.00 | 35 | 997.7 |
| 20260505031526 | 22 | 355 | 6.4 | 14.5 | 0.00 | 0.00 | 0.00 | 35 | 997.5 |
| 20260505030017 | 23 | 312 | 6.4 | 14.5 | 0.00 | 0.00 | 0.00 | 32 | 997.2 |
| 20260505030015 | 23 | 311 | 6.4 | 14.5 | 0.00 | 0.00 | 0.00 | 32 | 997.2 |
| 20260505024513 | 23 | 309 | 4.8 | 14.5 | 0.00 | 0.00 | 0.00 | 29 | 997.1 |
| 20260505023016 | 24 | 335 | 8.0 | 19.3 | 0.00 | 0.00 | 0.00 | 28 | 996.9 |
| 20260505021512 | 25 | 340 | 6.4 | 17.7 | 0.00 | 0.00 | 0.00 | 28 | 996.9 |
| 20260505020011 | 25 | 360 | 11.3 | 17.7 | 0.00 | 0.00 | 0.00 | 26 | 997.0 |
| 20260505014515 | 25 | 323 | 4.8 | 17.7 | 0.00 | 0.00 | 0.00 | 26 | 997.0 |
| 20260505013010 | 26 | 348 | 8.0 | 19.3 | 0.00 | 0.00 | 0.00 | 25 | 997.1 |
| 20260505011539 | 26 | 349 | 6.4 | 24.1 | 0.00 | 0.00 | 0.00 | 24 | 997.2 |
| 20260505004533 | 27 | 5 | 9.7 | 22.5 | 0.00 | 0.00 | 0.00 | 23 | 997.4 |
| 20260505003036 | 27 | 329 | 12.9 | 25.7 | 0.00 | 0.00 | 0.00 | 23 | 997.5 |
| 20260505001529 | 27 | 347 | 8.0 | 24.1 | 0.00 | 0.00 | 0.00 | 23 | 997.7 |
| 20260505000031 | 27 | 303 | 9.7 | 20.9 | 0.00 | 0.00 | 0.00 | 24 | 997.7 |
| 20260504234556 | 27 | 333 | 8.0 | 24.1 | 0.00 | 0.00 | 0.00 | 21 | 997.8 |
| 20260504233102 | 27 | 355 | 9.7 | 24.1 | 0.00 | 0.00 | 0.00 | 21 | 998.0 |
| 20260504231552 | 27 | 348 | 9.7 | 24.1 | 0.00 | 0.00 | 0.00 | 21 | 998.2 |